sensor_id;sensor_type;location;lat;lon;timestamp;P1;durP1;ratioP1;P2;durP2;ratioP2
61644;SDS011;47553;52.428;13.382;2022-10-31T00:00:07;24.60;;;12.70;;
61644;SDS011;47553;52.428;13.382;2022-10-31T00:02:09;22.00;;;12.90;;
61644;SDS011;47553;52.428;13.382;2022-10-31T00:04:11;22.40;;;11.88;;
61644;SDS011;47553;52.428;13.382;2022-10-31T00:06:13;26.05;;;11.68;;
61644;SDS011;47553;52.428;13.382;2022-10-31T00:08:15;21.33;;;10.18;;
61644;SDS011;47553;52.428;13.382;2022-10-31T00:10:17;18.83;;;10.45;;
61644;SDS011;47553;52.428;13.382;2022-10-31T00:12:19;21.83;;;11.63;;
61644;SDS011;47553;52.428;13.382;2022-10-31T00:14:21;21.98;;;11.38;;
61644;SDS011;47553;52.428;13.382;2022-10-31T00:16:23;21.13;;;11.93;;
61644;SDS011;47553;52.428;13.382;2022-10-31T00:18:26;23.98;;;10.80;;
61644;SDS011;47553;52.428;13.382;2022-10-31T00:20:27;20.67;;;11.27;;
61644;SDS011;47553;52.428;13.382;2022-10-31T00:22:30;24.50;;;11.02;;
61644;SDS011;47553;52.428;13.382;2022-10-31T00:24:31;19.00;;;9.98;;
61644;SDS011;47553;52.428;13.382;2022-10-31T00:26:33;23.50;;;11.18;;
61644;SDS011;47553;52.428;13.382;2022-10-31T00:28:36;19.20;;;10.07;;
61644;SDS011;47553;52.428;13.382;2022-10-31T00:30:38;22.00;;;11.40;;
61644;SDS011;47553;52.428;13.382;2022-10-31T00:32:39;21.40;;;9.98;;
61644;SDS011;47553;52.428;13.382;2022-10-31T00:34:41;19.92;;;10.38;;
61644;SDS011;47553;52.428;13.382;2022-10-31T00:36:42;18.00;;;9.98;;
61644;SDS011;47553;52.428;13.382;2022-10-31T00:38:44;20.05;;;9.85;;
61644;SDS011;47553;52.428;13.382;2022-10-31T00:40:47;24.73;;;10.63;;
61644;SDS011;47553;52.428;13.382;2022-10-31T00:42:48;20.25;;;10.60;;
61644;SDS011;47553;52.428;13.382;2022-10-31T00:44:51;20.67;;;9.43;;
61644;SDS011;47553;52.428;13.382;2022-10-31T00:46:53;24.17;;;10.30;;
61644;SDS011;47553;52.428;13.382;2022-10-31T00:48:55;24.33;;;10.68;;
61644;SDS011;47553;52.428;13.382;2022-10-31T00:50:56;23.50;;;9.80;;
61644;SDS011;47553;52.428;13.382;2022-10-31T00:53:00;18.60;;;9.13;;
61644;SDS011;47553;52.428;13.382;2022-10-31T00:55:02;20.08;;;10.88;;
61644;SDS011;47553;52.428;13.382;2022-10-31T00:57:04;19.42;;;9.43;;
61644;SDS011;47553;52.428;13.382;2022-10-31T00:59:06;20.50;;;10.77;;
61644;SDS011;47553;52.428;13.382;2022-10-31T01:01:09;21.92;;;11.02;;
61644;SDS011;47553;52.428;13.382;2022-10-31T01:03:10;21.40;;;10.65;;
61644;SDS011;47553;52.428;13.382;2022-10-31T01:05:12;22.02;;;11.20;;
61644;SDS011;47553;52.428;13.382;2022-10-31T01:07:13;23.27;;;11.10;;
61644;SDS011;47553;52.428;13.382;2022-10-31T01:09:15;24.20;;;12.63;;
61644;SDS011;47553;52.428;13.382;2022-10-31T01:11:17;21.13;;;12.15;;
61644;SDS011;47553;52.428;13.382;2022-10-31T01:13:21;20.75;;;10.10;;
61644;SDS011;47553;52.428;13.382;2022-10-31T01:15:23;24.00;;;10.82;;
61644;SDS011;47553;52.428;13.382;2022-10-31T01:17:26;18.73;;;10.93;;
61644;SDS011;47553;52.428;13.382;2022-10-31T01:19:27;20.05;;;11.45;;
61644;SDS011;47553;52.428;13.382;2022-10-31T01:21:29;22.77;;;11.00;;
61644;SDS011;47553;52.428;13.382;2022-10-31T01:23:34;23.17;;;11.38;;
61644;SDS011;47553;52.428;13.382;2022-10-31T01:25:37;19.38;;;10.57;;
61644;SDS011;47553;52.428;13.382;2022-10-31T01:27:38;21.73;;;11.50;;
61644;SDS011;47553;52.428;13.382;2022-10-31T01:29:40;20.42;;;10.75;;
61644;SDS011;47553;52.428;13.382;2022-10-31T01:31:41;25.05;;;12.43;;
61644;SDS011;47553;52.428;13.382;2022-10-31T01:33:46;20.98;;;11.45;;
61644;SDS011;47553;52.428;13.382;2022-10-31T01:35:48;20.80;;;10.93;;
61644;SDS011;47553;52.428;13.382;2022-10-31T01:37:50;25.45;;;11.98;;
61644;SDS011;47553;52.428;13.382;2022-10-31T01:39:51;25.23;;;12.05;;
61644;SDS011;47553;52.428;13.382;2022-10-31T01:41:53;26.05;;;11.90;;
61644;SDS011;47553;52.428;13.382;2022-10-31T01:43:56;21.75;;;11.05;;
61644;SDS011;47553;52.428;13.382;2022-10-31T01:45:59;21.60;;;11.57;;
61644;SDS011;47553;52.428;13.382;2022-10-31T01:48:01;22.52;;;11.85;;
61644;SDS011;47553;52.428;13.382;2022-10-31T01:50:06;27.27;;;12.63;;
61644;SDS011;47553;52.428;13.382;2022-10-31T01:52:14;24.40;;;11.27;;
61644;SDS011;47553;52.428;13.382;2022-10-31T01:54:21;20.95;;;10.82;;
61644;SDS011;47553;52.428;13.382;2022-10-31T01:56:25;18.40;;;9.70;;
61644;SDS011;47553;52.428;13.382;2022-10-31T01:58:27;19.25;;;10.07;;
61644;SDS011;47553;52.428;13.382;2022-10-31T02:00:32;18.30;;;9.27;;
61644;SDS011;47553;52.428;13.382;2022-10-31T02:02:34;21.27;;;8.95;;
61644;SDS011;47553;52.428;13.382;2022-10-31T02:04:36;20.88;;;10.57;;
61644;SDS011;47553;52.428;13.382;2022-10-31T02:06:41;19.85;;;11.00;;
61644;SDS011;47553;52.428;13.382;2022-10-31T02:08:47;20.67;;;10.13;;
61644;SDS011;47553;52.428;13.382;2022-10-31T02:10:49;21.40;;;9.63;;
61644;SDS011;47553;52.428;13.382;2022-10-31T02:12:54;14.52;;;8.73;;
61644;SDS011;47553;52.428;13.382;2022-10-31T02:14:59;16.45;;;8.93;;
61644;SDS011;47553;52.428;13.382;2022-10-31T02:17:02;19.23;;;9.40;;
61644;SDS011;47553;52.428;13.382;2022-10-31T02:19:03;21.70;;;10.23;;
61644;SDS011;47553;52.428;13.382;2022-10-31T02:21:11;20.35;;;9.40;;
61644;SDS011;47553;52.428;13.382;2022-10-31T02:23:24;20.13;;;10.05;;
61644;SDS011;47553;52.428;13.382;2022-10-31T02:26:02;20.52;;;9.95;;
61644;SDS011;47553;52.428;13.382;2022-10-31T02:28:30;20.77;;;10.32;;
61644;SDS011;47553;52.428;13.382;2022-10-31T02:30:56;18.52;;;10.10;;
61644;SDS011;47553;52.428;13.382;2022-10-31T02:33:06;19.25;;;8.88;;
61644;SDS011;47553;52.428;13.382;2022-10-31T02:35:24;17.48;;;8.65;;
61644;SDS011;47553;52.428;13.382;2022-10-31T02:37:37;16.92;;;8.55;;
61644;SDS011;47553;52.428;13.382;2022-10-31T02:39:46;20.20;;;9.23;;
61644;SDS011;47553;52.428;13.382;2022-10-31T02:41:58;20.38;;;10.50;;
61644;SDS011;47553;52.428;13.382;2022-10-31T02:44:06;22.67;;;10.90;;
61644;SDS011;47553;52.428;13.382;2022-10-31T02:46:13;19.70;;;9.93;;
61644;SDS011;47553;52.428;13.382;2022-10-31T02:48:20;17.85;;;9.05;;
61644;SDS011;47553;52.428;13.382;2022-10-31T02:50:26;16.77;;;10.57;;
61644;SDS011;47553;52.428;13.382;2022-10-31T02:52:32;27.10;;;10.98;;
61644;SDS011;47553;52.428;13.382;2022-10-31T02:54:35;25.10;;;11.52;;
61644;SDS011;47553;52.428;13.382;2022-10-31T02:56:37;21.08;;;11.35;;
61644;SDS011;47553;52.428;13.382;2022-10-31T02:58:40;21.33;;;10.68;;
61644;SDS011;47553;52.428;13.382;2022-10-31T03:00:48;20.55;;;10.63;;
61644;SDS011;47553;52.428;13.382;2022-10-31T03:03:06;20.65;;;10.02;;
61644;SDS011;47553;52.428;13.382;2022-10-31T03:05:22;23.25;;;11.07;;
61644;SDS011;47553;52.428;13.382;2022-10-31T03:09:37;20.92;;;11.18;;
61644;SDS011;47553;52.428;13.382;2022-10-31T03:11:51;22.75;;;10.43;;
61644;SDS011;47553;52.428;13.382;2022-10-31T03:13:59;22.00;;;10.35;;
61644;SDS011;47553;52.428;13.382;2022-10-31T03:16:13;21.80;;;9.90;;
61644;SDS011;47553;52.428;13.382;2022-10-31T03:18:19;21.58;;;10.40;;
61644;SDS011;47553;52.428;13.382;2022-10-31T03:20:26;21.40;;;11.57;;
61644;SDS011;47553;52.428;13.382;2022-10-31T03:22:34;21.27;;;10.70;;
61644;SDS011;47553;52.428;13.382;2022-10-31T03:24:39;23.23;;;11.15;;
61644;SDS011;47553;52.428;13.382;2022-10-31T03:26:44;25.38;;;11.93;;
61644;SDS011;47553;52.428;13.382;2022-10-31T03:28:49;23.55;;;11.48;;
61644;SDS011;47553;52.428;13.382;2022-10-31T03:30:54;21.48;;;11.02;;
61644;SDS011;47553;52.428;13.382;2022-10-31T03:32:58;25.00;;;12.15;;
61644;SDS011;47553;52.428;13.382;2022-10-31T03:35:06;24.70;;;12.13;;
61644;SDS011;47553;52.428;13.382;2022-10-31T03:37:13;24.98;;;11.40;;
61644;SDS011;47553;52.428;13.382;2022-10-31T03:39:18;27.98;;;11.73;;
61644;SDS011;47553;52.428;13.382;2022-10-31T03:41:23;24.55;;;10.68;;
61644;SDS011;47553;52.428;13.382;2022-10-31T03:43:30;19.10;;;9.60;;
61644;SDS011;47553;52.428;13.382;2022-10-31T03:45:39;19.35;;;9.57;;
61644;SDS011;47553;52.428;13.382;2022-10-31T03:47:44;21.17;;;9.68;;
61644;SDS011;47553;52.428;13.382;2022-10-31T03:49:45;20.35;;;9.48;;
61644;SDS011;47553;52.428;13.382;2022-10-31T03:51:49;19.00;;;9.57;;
61644;SDS011;47553;52.428;13.382;2022-10-31T03:53:56;17.75;;;9.30;;
61644;SDS011;47553;52.428;13.382;2022-10-31T03:56:05;15.82;;;7.90;;
61644;SDS011;47553;52.428;13.382;2022-10-31T03:58:13;20.98;;;9.05;;
61644;SDS011;47553;52.428;13.382;2022-10-31T04:00:22;24.20;;;9.75;;
61644;SDS011;47553;52.428;13.382;2022-10-31T04:02:25;20.38;;;9.57;;
61644;SDS011;47553;52.428;13.382;2022-10-31T04:04:35;24.20;;;10.60;;
61644;SDS011;47553;52.428;13.382;2022-10-31T04:06:38;20.20;;;10.07;;
61644;SDS011;47553;52.428;13.382;2022-10-31T04:08:45;20.85;;;10.52;;
61644;SDS011;47553;52.428;13.382;2022-10-31T04:10:50;19.50;;;8.95;;
61644;SDS011;47553;52.428;13.382;2022-10-31T04:12:56;17.95;;;8.20;;
61644;SDS011;47553;52.428;13.382;2022-10-31T04:15:03;20.23;;;9.15;;
61644;SDS011;47553;52.428;13.382;2022-10-31T04:17:09;20.25;;;9.60;;
61644;SDS011;47553;52.428;13.382;2022-10-31T04:19:19;20.70;;;9.00;;
61644;SDS011;47553;52.428;13.382;2022-10-31T04:21:26;19.40;;;10.18;;
61644;SDS011;47553;52.428;13.382;2022-10-31T04:23:28;20.55;;;10.35;;
61644;SDS011;47553;52.428;13.382;2022-10-31T04:25:31;22.70;;;10.48;;
61644;SDS011;47553;52.428;13.382;2022-10-31T04:27:33;19.77;;;10.15;;
61644;SDS011;47553;52.428;13.382;2022-10-31T04:29:34;22.75;;;12.32;;
61644;SDS011;47553;52.428;13.382;2022-10-31T04:31:36;22.92;;;11.13;;
61644;SDS011;47553;52.428;13.382;2022-10-31T04:33:37;20.75;;;10.40;;
61644;SDS011;47553;52.428;13.382;2022-10-31T04:35:39;20.02;;;9.48;;
61644;SDS011;47553;52.428;13.382;2022-10-31T04:37:41;20.13;;;10.52;;
61644;SDS011;47553;52.428;13.382;2022-10-31T04:39:51;26.35;;;11.52;;
61644;SDS011;47553;52.428;13.382;2022-10-31T04:41:54;23.08;;;11.40;;
61644;SDS011;47553;52.428;13.382;2022-10-31T04:43:56;25.70;;;11.93;;
61644;SDS011;47553;52.428;13.382;2022-10-31T04:45:57;22.00;;;10.88;;
61644;SDS011;47553;52.428;13.382;2022-10-31T04:47:59;22.30;;;10.70;;
61644;SDS011;47553;52.428;13.382;2022-10-31T04:50:01;21.33;;;10.30;;
61644;SDS011;47553;52.428;13.382;2022-10-31T04:52:03;27.98;;;11.52;;
61644;SDS011;47553;52.428;13.382;2022-10-31T04:54:05;24.45;;;11.35;;
61644;SDS011;47553;52.428;13.382;2022-10-31T04:56:06;22.02;;;11.45;;
61644;SDS011;47553;52.428;13.382;2022-10-31T04:58:10;24.00;;;10.18;;
61644;SDS011;47553;52.428;13.382;2022-10-31T05:00:12;23.33;;;10.77;;
61644;SDS011;47553;52.428;13.382;2022-10-31T05:02:15;22.10;;;10.77;;
61644;SDS011;47553;52.428;13.382;2022-10-31T05:04:18;21.05;;;10.60;;
61644;SDS011;47553;52.428;13.382;2022-10-31T05:06:20;23.58;;;10.60;;
61644;SDS011;47553;52.428;13.382;2022-10-31T05:08:22;19.42;;;9.85;;
61644;SDS011;47553;52.428;13.382;2022-10-31T05:10:25;22.35;;;9.52;;
61644;SDS011;47553;52.428;13.382;2022-10-31T05:12:28;21.13;;;10.00;;
61644;SDS011;47553;52.428;13.382;2022-10-31T05:14:30;22.77;;;9.20;;
61644;SDS011;47553;52.428;13.382;2022-10-31T05:16:32;17.90;;;8.90;;
61644;SDS011;47553;52.428;13.382;2022-10-31T05:18:33;18.70;;;8.13;;
61644;SDS011;47553;52.428;13.382;2022-10-31T05:20:35;19.85;;;8.93;;
61644;SDS011;47553;52.428;13.382;2022-10-31T05:22:36;19.58;;;8.90;;
61644;SDS011;47553;52.428;13.382;2022-10-31T05:24:38;17.05;;;8.05;;
61644;SDS011;47553;52.428;13.382;2022-10-31T05:26:40;15.73;;;8.10;;
61644;SDS011;47553;52.428;13.382;2022-10-31T05:28:42;14.75;;;7.47;;
61644;SDS011;47553;52.428;13.382;2022-10-31T05:30:45;16.73;;;7.93;;
61644;SDS011;47553;52.428;13.382;2022-10-31T05:32:47;18.08;;;8.52;;
61644;SDS011;47553;52.428;13.382;2022-10-31T05:34:49;21.05;;;9.02;;
61644;SDS011;47553;52.428;13.382;2022-10-31T05:36:51;18.85;;;9.70;;
61644;SDS011;47553;52.428;13.382;2022-10-31T05:38:52;17.95;;;9.73;;
61644;SDS011;47553;52.428;13.382;2022-10-31T05:40:54;18.23;;;9.27;;
61644;SDS011;47553;52.428;13.382;2022-10-31T05:42:58;18.20;;;9.70;;
61644;SDS011;47553;52.428;13.382;2022-10-31T05:45:03;19.88;;;9.93;;
61644;SDS011;47553;52.428;13.382;2022-10-31T05:47:06;19.00;;;9.35;;
61644;SDS011;47553;52.428;13.382;2022-10-31T05:49:08;22.42;;;9.98;;
61644;SDS011;47553;52.428;13.382;2022-10-31T05:51:09;22.23;;;9.70;;
61644;SDS011;47553;52.428;13.382;2022-10-31T05:53:11;20.02;;;9.02;;
61644;SDS011;47553;52.428;13.382;2022-10-31T05:55:12;21.33;;;10.00;;
61644;SDS011;47553;52.428;13.382;2022-10-31T05:57:14;17.50;;;8.70;;
61644;SDS011;47553;52.428;13.382;2022-10-31T05:59:16;19.20;;;9.73;;
61644;SDS011;47553;52.428;13.382;2022-10-31T06:01:20;21.48;;;9.55;;
61644;SDS011;47553;52.428;13.382;2022-10-31T06:03:23;19.98;;;9.63;;
61644;SDS011;47553;52.428;13.382;2022-10-31T06:05:26;18.45;;;9.10;;
61644;SDS011;47553;52.428;13.382;2022-10-31T06:07:31;19.50;;;9.35;;
61644;SDS011;47553;52.428;13.382;2022-10-31T06:09:33;18.08;;;8.90;;
61644;SDS011;47553;52.428;13.382;2022-10-31T06:11:35;21.58;;;9.80;;
61644;SDS011;47553;52.428;13.382;2022-10-31T06:13:36;19.25;;;9.07;;
61644;SDS011;47553;52.428;13.382;2022-10-31T06:15:38;18.42;;;8.30;;
61644;SDS011;47553;52.428;13.382;2022-10-31T06:17:39;16.80;;;8.13;;
61644;SDS011;47553;52.428;13.382;2022-10-31T06:19:42;17.10;;;8.63;;
61644;SDS011;47553;52.428;13.382;2022-10-31T06:21:44;16.58;;;7.38;;
61644;SDS011;47553;52.428;13.382;2022-10-31T06:23:45;18.38;;;8.35;;
61644;SDS011;47553;52.428;13.382;2022-10-31T06:25:49;20.30;;;8.60;;
61644;SDS011;47553;52.428;13.382;2022-10-31T06:27:52;17.58;;;8.23;;
61644;SDS011;47553;52.428;13.382;2022-10-31T06:29:54;15.05;;;8.05;;
61644;SDS011;47553;52.428;13.382;2022-10-31T06:31:55;20.60;;;8.95;;
61644;SDS011;47553;52.428;13.382;2022-10-31T06:33:57;23.48;;;9.20;;
61644;SDS011;47553;52.428;13.382;2022-10-31T06:36:00;19.15;;;8.65;;
61644;SDS011;47553;52.428;13.382;2022-10-31T06:38:01;21.73;;;9.75;;
61644;SDS011;47553;52.428;13.382;2022-10-31T06:40:04;23.23;;;10.30;;
61644;SDS011;47553;52.428;13.382;2022-10-31T06:42:06;23.42;;;10.75;;
61644;SDS011;47553;52.428;13.382;2022-10-31T06:44:08;22.48;;;10.02;;
61644;SDS011;47553;52.428;13.382;2022-10-31T06:46:09;20.50;;;9.73;;
61644;SDS011;47553;52.428;13.382;2022-10-31T06:48:11;22.20;;;10.00;;
61644;SDS011;47553;52.428;13.382;2022-10-31T06:50:20;20.63;;;9.98;;
61644;SDS011;47553;52.428;13.382;2022-10-31T06:52:25;22.25;;;9.77;;
61644;SDS011;47553;52.428;13.382;2022-10-31T06:54:27;20.38;;;9.63;;
61644;SDS011;47553;52.428;13.382;2022-10-31T06:56:28;20.80;;;9.15;;
61644;SDS011;47553;52.428;13.382;2022-10-31T06:58:30;16.90;;;9.20;;
61644;SDS011;47553;52.428;13.382;2022-10-31T07:00:32;17.13;;;7.78;;
61644;SDS011;47553;52.428;13.382;2022-10-31T07:02:34;19.17;;;9.15;;
61644;SDS011;47553;52.428;13.382;2022-10-31T07:04:35;15.48;;;7.88;;
61644;SDS011;47553;52.428;13.382;2022-10-31T07:06:37;18.38;;;8.60;;
61644;SDS011;47553;52.428;13.382;2022-10-31T07:08:40;25.05;;;8.80;;
61644;SDS011;47553;52.428;13.382;2022-10-31T07:10:42;18.33;;;8.55;;
61644;SDS011;47553;52.428;13.382;2022-10-31T07:12:44;18.08;;;7.80;;
61644;SDS011;47553;52.428;13.382;2022-10-31T07:14:45;17.52;;;8.13;;
61644;SDS011;47553;52.428;13.382;2022-10-31T07:16:48;30.10;;;14.05;;
61644;SDS011;47553;52.428;13.382;2022-10-31T07:18:50;19.10;;;8.70;;
61644;SDS011;47553;52.428;13.382;2022-10-31T07:20:52;21.92;;;9.30;;
61644;SDS011;47553;52.428;13.382;2022-10-31T07:22:54;27.77;;;10.88;;
61644;SDS011;47553;52.428;13.382;2022-10-31T07:24:57;20.85;;;9.30;;
61644;SDS011;47553;52.428;13.382;2022-10-31T07:26:58;18.58;;;8.73;;
61644;SDS011;47553;52.428;13.382;2022-10-31T07:29:03;23.33;;;9.40;;
61644;SDS011;47553;52.428;13.382;2022-10-31T07:31:05;17.77;;;8.05;;
61644;SDS011;47553;52.428;13.382;2022-10-31T07:33:08;19.40;;;8.45;;
61644;SDS011;47553;52.428;13.382;2022-10-31T07:35:10;24.65;;;11.98;;
61644;SDS011;47553;52.428;13.382;2022-10-31T07:37:13;22.17;;;8.85;;
61644;SDS011;47553;52.428;13.382;2022-10-31T07:39:14;17.88;;;8.48;;
61644;SDS011;47553;52.428;13.382;2022-10-31T07:41:17;18.10;;;8.60;;
61644;SDS011;47553;52.428;13.382;2022-10-31T07:43:21;22.55;;;10.13;;
61644;SDS011;47553;52.428;13.382;2022-10-31T07:45:23;19.83;;;9.38;;
61644;SDS011;47553;52.428;13.382;2022-10-31T07:47:28;19.27;;;9.68;;
61644;SDS011;47553;52.428;13.382;2022-10-31T07:49:29;16.60;;;8.48;;
61644;SDS011;47553;52.428;13.382;2022-10-31T07:51:31;18.60;;;7.82;;
61644;SDS011;47553;52.428;13.382;2022-10-31T07:53:33;18.75;;;8.73;;
61644;SDS011;47553;52.428;13.382;2022-10-31T07:55:35;18.38;;;8.45;;
61644;SDS011;47553;52.428;13.382;2022-10-31T07:57:38;19.38;;;9.00;;
61644;SDS011;47553;52.428;13.382;2022-10-31T07:59:40;20.52;;;8.20;;
61644;SDS011;47553;52.428;13.382;2022-10-31T08:01:41;18.45;;;8.43;;
61644;SDS011;47553;52.428;13.382;2022-10-31T08:03:43;18.83;;;9.13;;
61644;SDS011;47553;52.428;13.382;2022-10-31T08:05:45;17.63;;;8.27;;
61644;SDS011;47553;52.428;13.382;2022-10-31T08:07:46;22.33;;;9.07;;
61644;SDS011;47553;52.428;13.382;2022-10-31T08:09:48;53.20;;;23.40;;
61644;SDS011;47553;52.428;13.382;2022-10-31T08:11:49;26.80;;;13.15;;
61644;SDS011;47553;52.428;13.382;2022-10-31T08:13:52;19.40;;;10.52;;
61644;SDS011;47553;52.428;13.382;2022-10-31T08:15:54;24.05;;;10.25;;
61644;SDS011;47553;52.428;13.382;2022-10-31T08:17:56;17.92;;;8.80;;
61644;SDS011;47553;52.428;13.382;2022-10-31T08:19:58;46.42;;;19.75;;
61644;SDS011;47553;52.428;13.382;2022-10-31T08:21:59;19.33;;;8.98;;
61644;SDS011;47553;52.428;13.382;2022-10-31T08:24:01;24.73;;;11.63;;
61644;SDS011;47553;52.428;13.382;2022-10-31T08:26:03;28.48;;;13.85;;
61644;SDS011;47553;52.428;13.382;2022-10-31T08:28:05;32.53;;;15.55;;
61644;SDS011;47553;52.428;13.382;2022-10-31T08:30:09;26.52;;;11.52;;
61644;SDS011;47553;52.428;13.382;2022-10-31T08:32:11;22.70;;;10.93;;
61644;SDS011;47553;52.428;13.382;2022-10-31T08:34:13;22.55;;;10.32;;
61644;SDS011;47553;52.428;13.382;2022-10-31T08:36:14;20.25;;;8.95;;
61644;SDS011;47553;52.428;13.382;2022-10-31T08:38:16;24.70;;;10.70;;
61644;SDS011;47553;52.428;13.382;2022-10-31T08:40:18;22.88;;;10.43;;
61644;SDS011;47553;52.428;13.382;2022-10-31T08:42:23;21.90;;;10.13;;
61644;SDS011;47553;52.428;13.382;2022-10-31T08:44:24;22.85;;;10.80;;
61644;SDS011;47553;52.428;13.382;2022-10-31T08:46:27;21.50;;;10.40;;
61644;SDS011;47553;52.428;13.382;2022-10-31T08:48:29;25.00;;;11.18;;
61644;SDS011;47553;52.428;13.382;2022-10-31T08:50:31;37.13;;;17.40;;
61644;SDS011;47553;52.428;13.382;2022-10-31T08:52:34;57.58;;;26.80;;
61644;SDS011;47553;52.428;13.382;2022-10-31T08:54:56;37.28;;;16.63;;
61644;SDS011;47553;52.428;13.382;2022-10-31T08:56:58;32.33;;;15.27;;
61644;SDS011;47553;52.428;13.382;2022-10-31T08:59:02;26.33;;;11.18;;
61644;SDS011;47553;52.428;13.382;2022-10-31T09:01:04;28.13;;;10.82;;
61644;SDS011;47553;52.428;13.382;2022-10-31T09:03:09;27.02;;;10.95;;
61644;SDS011;47553;52.428;13.382;2022-10-31T09:05:12;27.10;;;11.95;;
61644;SDS011;47553;52.428;13.382;2022-10-31T09:07:14;25.52;;;11.30;;
61644;SDS011;47553;52.428;13.382;2022-10-31T09:09:23;23.95;;;11.60;;
61644;SDS011;47553;52.428;13.382;2022-10-31T09:11:25;27.92;;;11.60;;
61644;SDS011;47553;52.428;13.382;2022-10-31T09:13:29;26.92;;;11.80;;
61644;SDS011;47553;52.428;13.382;2022-10-31T09:15:30;26.13;;;11.55;;
61644;SDS011;47553;52.428;13.382;2022-10-31T09:17:32;27.63;;;11.93;;
61644;SDS011;47553;52.428;13.382;2022-10-31T09:19:37;25.75;;;11.80;;
61644;SDS011;47553;52.428;13.382;2022-10-31T09:21:39;23.25;;;10.05;;
61644;SDS011;47553;52.428;13.382;2022-10-31T09:23:41;24.15;;;11.70;;
61644;SDS011;47553;52.428;13.382;2022-10-31T09:25:43;27.92;;;12.95;;
61644;SDS011;47553;52.428;13.382;2022-10-31T09:27:50;25.20;;;11.43;;
61644;SDS011;47553;52.428;13.382;2022-10-31T09:29:52;22.42;;;10.65;;
61644;SDS011;47553;52.428;13.382;2022-10-31T09:31:55;30.25;;;11.88;;
61644;SDS011;47553;52.428;13.382;2022-10-31T09:33:57;27.65;;;11.20;;
61644;SDS011;47553;52.428;13.382;2022-10-31T09:36:00;26.65;;;11.45;;
61644;SDS011;47553;52.428;13.382;2022-10-31T09:38:02;22.02;;;10.52;;
61644;SDS011;47553;52.428;13.382;2022-10-31T09:40:05;28.05;;;14.68;;
61644;SDS011;47553;52.428;13.382;2022-10-31T09:42:23;34.22;;;14.60;;
61644;SDS011;47553;52.428;13.382;2022-10-31T09:44:32;28.55;;;12.05;;
61644;SDS011;47553;52.428;13.382;2022-10-31T09:46:47;26.40;;;12.27;;
61644;SDS011;47553;52.428;13.382;2022-10-31T09:49:00;38.85;;;17.52;;
61644;SDS011;47553;52.428;13.382;2022-10-31T09:51:19;26.52;;;12.15;;
61644;SDS011;47553;52.428;13.382;2022-10-31T09:53:25;29.92;;;12.30;;
61644;SDS011;47553;52.428;13.382;2022-10-31T09:55:34;29.95;;;12.98;;
61644;SDS011;47553;52.428;13.382;2022-10-31T09:57:38;26.63;;;12.52;;
61644;SDS011;47553;52.428;13.382;2022-10-31T09:59:43;26.90;;;12.18;;
61644;SDS011;47553;52.428;13.382;2022-10-31T10:01:47;28.13;;;12.40;;
61644;SDS011;47553;52.428;13.382;2022-10-31T10:03:53;25.48;;;11.38;;
61644;SDS011;47553;52.428;13.382;2022-10-31T10:06:06;27.83;;;13.00;;
61644;SDS011;47553;52.428;13.382;2022-10-31T10:08:16;32.00;;;14.77;;
61644;SDS011;47553;52.428;13.382;2022-10-31T10:10:23;24.45;;;12.43;;
61644;SDS011;47553;52.428;13.382;2022-10-31T10:12:35;35.47;;;16.33;;
61644;SDS011;47553;52.428;13.382;2022-10-31T10:14:48;29.92;;;14.70;;
61644;SDS011;47553;52.428;13.382;2022-10-31T10:17:02;21.38;;;11.70;;
61644;SDS011;47553;52.428;13.382;2022-10-31T10:19:20;25.95;;;11.52;;
61644;SDS011;47553;52.428;13.382;2022-10-31T10:21:36;26.23;;;12.35;;
61644;SDS011;47553;52.428;13.382;2022-10-31T10:23:48;26.65;;;12.30;;
61644;SDS011;47553;52.428;13.382;2022-10-31T10:25:59;29.90;;;12.80;;
61644;SDS011;47553;52.428;13.382;2022-10-31T10:28:16;27.45;;;11.93;;
61644;SDS011;47553;52.428;13.382;2022-10-31T10:30:23;27.92;;;12.95;;
61644;SDS011;47553;52.428;13.382;2022-10-31T10:32:34;26.98;;;12.35;;
61644;SDS011;47553;52.428;13.382;2022-10-31T10:34:41;27.40;;;12.55;;
61644;SDS011;47553;52.428;13.382;2022-10-31T10:36:47;29.70;;;12.25;;
61644;SDS011;47553;52.428;13.382;2022-10-31T10:38:55;28.58;;;12.40;;
61644;SDS011;47553;52.428;13.382;2022-10-31T10:41:01;25.10;;;11.75;;
61644;SDS011;47553;52.428;13.382;2022-10-31T10:43:15;27.67;;;12.40;;
61644;SDS011;47553;52.428;13.382;2022-10-31T10:45:33;26.88;;;12.05;;
61644;SDS011;47553;52.428;13.382;2022-10-31T10:47:36;25.42;;;11.13;;
61644;SDS011;47553;52.428;13.382;2022-10-31T10:51:46;28.10;;;12.65;;
61644;SDS011;47553;52.428;13.382;2022-10-31T10:54:32;28.83;;;12.20;;
61644;SDS011;47553;52.428;13.382;2022-10-31T10:56:56;29.95;;;12.40;;
61644;SDS011;47553;52.428;13.382;2022-10-31T10:59:08;30.52;;;12.88;;
61644;SDS011;47553;52.428;13.382;2022-10-31T11:01:13;28.13;;;12.73;;
61644;SDS011;47553;52.428;13.382;2022-10-31T11:03:21;30.17;;;13.80;;
61644;SDS011;47553;52.428;13.382;2022-10-31T11:05:28;36.30;;;17.13;;
61644;SDS011;47553;52.428;13.382;2022-10-31T11:07:39;28.48;;;13.68;;
61644;SDS011;47553;52.428;13.382;2022-10-31T11:09:42;31.52;;;13.88;;
61644;SDS011;47553;52.428;13.382;2022-10-31T11:11:43;26.83;;;12.68;;
61644;SDS011;47553;52.428;13.382;2022-10-31T11:13:46;28.20;;;13.63;;
61644;SDS011;47553;52.428;13.382;2022-10-31T11:15:51;29.70;;;13.35;;
61644;SDS011;47553;52.428;13.382;2022-10-31T11:17:57;30.50;;;13.50;;
61644;SDS011;47553;52.428;13.382;2022-10-31T11:20:00;34.80;;;14.52;;
61644;SDS011;47553;52.428;13.382;2022-10-31T11:24:12;29.23;;;13.10;;
61644;SDS011;47553;52.428;13.382;2022-10-31T11:26:19;29.60;;;13.65;;
61644;SDS011;47553;52.428;13.382;2022-10-31T11:28:21;25.58;;;12.98;;
61644;SDS011;47553;52.428;13.382;2022-10-31T11:30:26;27.50;;;13.82;;
61644;SDS011;47553;52.428;13.382;2022-10-31T11:32:27;30.33;;;12.48;;
61644;SDS011;47553;52.428;13.382;2022-10-31T11:34:29;31.15;;;13.70;;
61644;SDS011;47553;52.428;13.382;2022-10-31T11:36:35;28.70;;;14.13;;
61644;SDS011;47553;52.428;13.382;2022-10-31T11:38:40;27.65;;;12.55;;
61644;SDS011;47553;52.428;13.382;2022-10-31T11:40:51;27.40;;;11.73;;
61644;SDS011;47553;52.428;13.382;2022-10-31T11:43:00;31.63;;;13.95;;
61644;SDS011;47553;52.428;13.382;2022-10-31T11:45:02;28.95;;;13.80;;
61644;SDS011;47553;52.428;13.382;2022-10-31T11:47:15;36.15;;;14.18;;
61644;SDS011;47553;52.428;13.382;2022-10-31T11:49:25;33.22;;;14.60;;
61644;SDS011;47553;52.428;13.382;2022-10-31T11:51:32;32.72;;;14.20;;
61644;SDS011;47553;52.428;13.382;2022-10-31T11:53:35;33.38;;;15.00;;
61644;SDS011;47553;52.428;13.382;2022-10-31T11:55:39;30.98;;;14.25;;
61644;SDS011;47553;52.428;13.382;2022-10-31T11:57:42;25.50;;;13.05;;
61644;SDS011;47553;52.428;13.382;2022-10-31T11:59:51;30.48;;;13.43;;
61644;SDS011;47553;52.428;13.382;2022-10-31T12:01:54;27.15;;;12.48;;
61644;SDS011;47553;52.428;13.382;2022-10-31T12:03:59;33.00;;;14.25;;
61644;SDS011;47553;52.428;13.382;2022-10-31T12:06:07;30.95;;;13.57;;
61644;SDS011;47553;52.428;13.382;2022-10-31T12:08:13;27.90;;;12.45;;